Time;durP1;ratioP1;P1;durP2;ratioP2;P2;SDS_P1;SDS_P2;PMS_P1;PMS_P2;Temp;Humidity;BMP_temperature;BMP_pressure;BME280_temperature;BME280_humidity;BME280_pressure;Samples;Min_cycle;Max_cycle;Signal;HPM_P1;HPM_P2
2021/08/26 00:00:20;;;;;;;;;;;;;;;24.43;51.53;99468.84;2053182;28;19925;-71
2021/08/26 00:05:56;;;;;;;;;;;;;;;24.44;51.55;99462.28;2052392;28;19926;-71
2021/08/26 00:06:37;;;;;;;;;;;;;;;24.43;51.48;99464.19;2052277;28;19910;-71
2021/08/26 00:07:37;;;;;;;;;;;;;;;24.43;51.63;99458.69;2056242;28;19917;-71
2021/08/26 00:08:38;;;;;;;;;;;;;;;24.44;51.49;99454.00;2056186;28;19984;-71
2021/08/26 00:09:38;;;;;;;;;;;;;;;24.43;51.65;99457.84;2055125;28;19914;-71
2021/08/26 00:10:39;;;;;;;;;;;;;;;24.43;51.57;99452.31;2055240;28;19925;-71
2021/08/26 00:11:44;;;;;;;;;;;;;;;24.43;51.49;99452.31;2055558;28;20253;-72
2021/08/26 00:12:44;;;;;;;;;;;;;;;24.44;51.57;99451.25;2058351;28;20661;-71
2021/08/26 00:13:46;;;;;;;;;;;;;;;24.43;51.45;99452.31;2056222;28;20314;-71
2021/08/26 00:14:46;;;;;;;;;;;;;;;24.43;51.58;99453.19;2058641;28;19925;-71
2021/08/26 00:15:47;;;;;;;;;;;;;;;24.42;51.60;99445.94;2058343;28;20008;-71
2021/08/26 00:16:47;;;;;;;;;;;;;;;24.42;51.56;99454.22;2072939;28;19921;-70
2021/08/26 00:17:47;;;;;;;;;;;;;;;24.42;51.50;99451.44;2077979;28;19920;-71
2021/08/26 00:20:26;;;;;;;;;;;;;;;24.43;51.49;99450.41;2057459;28;19917;-71
2021/08/26 00:21:28;;;;;;;;;;;;;;;24.43;51.41;99452.31;2059191;28;19918;-71
2021/08/26 00:22:28;;;;;;;;;;;;;;;24.42;51.52;99445.09;2055302;28;20506;-71
2021/08/26 00:23:28;;;;;;;;;;;;;;;24.43;51.43;99449.56;2059111;28;19910;-71
2021/08/26 00:24:29;;;;;;;;;;;;;;;24.42;51.51;99445.09;2058626;28;19909;-71
2021/08/26 00:25:29;;;;;;;;;;;;;;;24.41;51.52;99444.25;2054848;28;19917;-71
2021/08/26 00:26:31;;;;;;;;;;;;;;;24.41;51.58;99448.91;2060411;28;20130;-71
2021/08/26 00:27:32;;;;;;;;;;;;;;;24.41;51.49;99448.91;2054588;28;19918;-71
2021/08/26 00:28:32;;;;;;;;;;;;;;;24.40;51.66;99448.06;2058679;28;20000;-71
2021/08/26 00:29:32;;;;;;;;;;;;;;;24.41;51.60;99454.44;2059220;28;20054;-71
2021/08/26 00:30:33;;;;;;;;;;;;;;;24.41;51.61;99454.44;2059836;28;19960;-71
2021/08/26 00:31:33;;;;;;;;;;;;;;;24.41;51.70;99448.91;2061254;28;19925;-71
2021/08/26 00:32:34;;;;;;;;;;;;;;;24.40;51.89;99448.06;2060675;28;20347;-71
2021/08/26 00:33:34;;;;;;;;;;;;;;;24.40;51.74;99445.31;2063537;28;20743;-72
2021/08/26 00:34:34;;;;;;;;;;;;;;;24.40;51.68;99448.06;2059141;28;20613;-71
2021/08/26 00:35:34;;;;;;;;;;;;;;;24.41;51.66;99451.66;2059582;28;20593;-71
2021/08/26 00:36:35;;;;;;;;;;;;;;;24.41;51.62;99449.75;2066284;28;19909;-71
2021/08/26 00:37:35;;;;;;;;;;;;;;;24.42;51.67;99450.59;2060537;28;19924;-71
2021/08/26 00:38:35;;;;;;;;;;;;;;;24.41;51.58;99451.66;2060187;28;20357;-72
2021/08/26 00:39:36;;;;;;;;;;;;;;;24.41;51.57;99448.91;2058298;28;20721;-72
2021/08/26 00:40:36;;;;;;;;;;;;;;;24.39;51.56;99452.72;2058042;28;20159;-72
2021/08/26 00:41:36;;;;;;;;;;;;;;;24.39;51.68;99452.72;2054284;28;19925;-72
2021/08/26 00:42:37;;;;;;;;;;;;;;;24.39;51.70;99446.34;2059253;28;19984;-72
2021/08/26 00:43:37;;;;;;;;;;;;;;;24.39;51.71;99446.34;2058295;28;20007;-70
2021/08/26 00:44:38;;;;;;;;;;;;;;;24.40;51.76;99453.59;2059387;28;19921;-72
2021/08/26 00:45:39;;;;;;;;;;;;;;;24.39;51.54;99449.94;2058173;28;21634;-72
2021/08/26 00:46:39;;;;;;;;;;;;;;;24.41;51.76;99454.44;2057046;28;19917;-71
2021/08/26 00:47:43;;;;;;;;;;;;;;;24.41;51.58;99448.91;2059795;28;19926;-72
2021/08/26 00:48:44;;;;;;;;;;;;;;;24.39;51.70;99449.94;2059457;28;19926;-72
2021/08/26 00:49:47;;;;;;;;;;;;;;;24.39;51.79;99452.72;2058816;28;20135;-72
2021/08/26 00:50:50;;;;;;;;;;;;;;;24.40;51.70;99453.59;2056207;28;20013;-72
2021/08/26 00:51:50;;;;;;;;;;;;;;;24.38;51.72;99448.25;2060962;28;19921;-72
2021/08/26 00:52:51;;;;;;;;;;;;;;;24.38;51.76;99456.53;2057483;28;20090;-71
2021/08/26 00:53:53;;;;;;;;;;;;;;;24.39;51.78;99449.09;2056492;28;19918;-72
2021/08/26 00:54:54;;;;;;;;;;;;;;;24.39;51.76;99451.84;2057913;28;19921;-72
2021/08/26 00:55:55;;;;;;;;;;;;;;;24.38;51.62;99453.78;2057962;28;19984;-72
2021/08/26 00:56:56;;;;;;;;;;;;;;;24.37;51.69;99454.81;2059213;28;20015;-72
2021/08/26 00:57:56;;;;;;;;;;;;;;;24.38;51.67;99462.03;2061105;28;19913;-71
2021/08/26 00:58:57;;;;;;;;;;;;;;;24.38;51.82;99459.28;2059865;28;20413;-71
2021/08/26 00:59:58;;;;;;;;;;;;;;;24.37;51.69;99454.81;2059172;28;19910;-71
2021/08/26 01:01:00;;;;;;;;;;;;;;;24.38;51.84;99458.44;2059784;28;20016;-71
2021/08/26 01:02:16;;;;;;;;;;;;;;;24.38;51.68;99456.53;2053289;28;19921;-72
2021/08/26 01:03:17;;;;;;;;;;;;;;;24.38;51.76;99456.53;2058530;28;19921;-72
2021/08/26 01:04:25;;;;;;;;;;;;;;;24.37;51.85;99457.56;2059977;28;19925;-72
2021/08/26 01:05:35;;;;;;;;;;;;;;;24.38;51.78;99455.69;2058528;28;19929;-71
2021/08/26 01:06:58;;;;;;;;;;;;;;;24.36;51.74;99458.63;2058700;28;19953;-71
2021/08/26 01:08:13;;;;;;;;;;;;;;;24.37;51.67;99457.56;2061451;28;19913;-71
2021/08/26 01:09:14;;;;;;;;;;;;;;;24.36;51.77;99458.63;2057572;28;19999;-71
2021/08/26 01:10:16;;;;;;;;;;;;;;;24.37;51.78;99460.31;2060003;28;19936;-71
2021/08/26 01:11:16;;;;;;;;;;;;;;;24.37;51.60;99460.31;2061805;28;19928;-71
2021/08/26 01:12:21;;;;;;;;;;;;;;;24.36;51.86;99458.63;2056826;28;19913;-71
2021/08/26 01:13:22;;;;;;;;;;;;;;;24.36;51.78;99453.13;2058217;28;19921;-71
2021/08/26 01:14:29;;;;;;;;;;;;;;;24.36;51.78;99453.13;2060675;28;19921;-71
2021/08/26 01:15:29;;;;;;;;;;;;;;;24.37;51.77;99448.44;2073481;28;19993;-70
2021/08/26 01:16:29;;;;;;;;;;;;;;;24.36;51.65;99450.34;2069840;28;19924;-71
2021/08/26 01:17:31;;;;;;;;;;;;;;;24.37;51.76;99449.28;2055663;28;19928;-72
2021/08/26 01:18:32;;;;;;;;;;;;;;;24.35;51.63;99440.41;2060266;28;19932;-71
2021/08/26 01:19:52;;;;;;;;;;;;;;;24.36;51.69;99447.59;2057761;28;19921;-71
2021/08/26 01:20:52;;;;;;;;;;;;;;;24.35;51.78;99445.91;2055777;28;20384;-71
2021/08/26 01:21:52;;;;;;;;;;;;;;;24.35;51.74;99451.44;2059379;28;19917;-71
2021/08/26 01:22:53;;;;;;;;;;;;;;;24.37;51.78;99448.44;2059790;28;19973;-70
2021/08/26 01:24:00;;;;;;;;;;;;;;;24.36;51.73;99450.34;2053682;28;19918;-71
2021/08/26 01:25:22;;;;;;;;;;;;;;;24.35;51.65;99451.44;2055184;28;20667;-71
2021/08/26 01:26:59;;;;;;;;;;;;;;;24.35;51.83;99456.94;2060613;28;19925;-71
2021/08/26 01:28:04;;;;;;;;;;;;;;;24.35;51.83;99456.94;2050763;28;20402;-71
2021/08/26 01:29:05;;;;;;;;;;;;;;;24.35;51.65;99462.44;2048639;28;20695;-71
2021/08/26 01:30:06;;;;;;;;;;;;;;;24.36;51.84;99455.88;2051774;28;19921;-71
2021/08/26 01:31:07;;;;;;;;;;;;;;;24.37;51.68;99454.81;2058590;28;20012;-71
2021/08/26 01:32:07;;;;;;;;;;;;;;;24.36;51.66;99460.53;2056950;28;19929;-71
2021/08/26 01:33:07;;;;;;;;;;;;;;;24.35;51.58;99456.94;2062217;28;20388;-71
2021/08/26 01:34:08;;;;;;;;;;;;;;;24.36;51.78;99453.13;2058552;28;19920;-71
2021/08/26 01:35:09;;;;;;;;;;;;;;;24.35;51.65;99450.53;2061133;28;19925;-71
2021/08/26 01:36:09;;;;;;;;;;;;;;;24.35;51.61;99464.31;2059917;28;19957;-71
2021/08/26 01:37:10;;;;;;;;;;;;;;;24.35;51.73;99458.81;2075035;28;20056;-71
2021/08/26 01:38:19;;;;;;;;;;;;;;;24.35;51.64;99451.44;2078085;28;20720;-71
2021/08/26 01:39:19;;;;;;;;;;;;;;;24.36;51.76;99457.78;2059180;28;20018;-71
2021/08/26 01:40:35;;;;;;;;;;;;;;;24.34;51.83;99452.47;2059049;28;19921;-71
2021/08/26 01:41:40;;;;;;;;;;;;;;;24.34;51.71;99444.19;2059929;28;19948;-71
2021/08/26 01:42:41;;;;;;;;;;;;;;;24.35;51.71;99451.44;2059818;28;19922;-71
2021/08/26 01:43:44;;;;;;;;;;;;;;;24.34;51.75;99443.34;2059158;28;19922;-71
2021/08/26 01:44:45;;;;;;;;;;;;;;;24.35;51.63;99456.94;2060258;28;19966;-71
2021/08/26 01:45:48;;;;;;;;;;;;;;;24.34;51.70;99452.47;2057265;28;19929;-72
2021/08/26 01:46:50;;;;;;;;;;;;;;;24.34;51.77;99452.47;2057744;28;19910;-71
2021/08/26 01:47:50;;;;;;;;;;;;;;;24.32;51.82;99449.03;2060954;28;19917;-70
2021/08/26 01:48:50;;;;;;;;;;;;;;;24.33;51.76;99450.78;2057568;28;19952;-71
2021/08/26 01:49:51;;;;;;;;;;;;;;;24.32;51.79;99451.81;2060350;28;19920;-72
2021/08/26 01:50:52;;;;;;;;;;;;;;;24.34;51.79;99451.63;2058761;28;19921;-71
2021/08/26 01:51:52;;;;;;;;;;;;;;;24.34;51.82;99448.84;2059549;28;19922;-72
2021/08/26 01:52:52;;;;;;;;;;;;;;;24.35;51.85;99456.94;2059876;28;19914;-72
2021/08/26 01:53:54;;;;;;;;;;;;;;;24.34;51.77;99449.69;2059242;28;20694;-72
2021/08/26 01:54:55;;;;;;;;;;;;;;;24.35;51.79;99445.03;2059545;28;20650;-72
2021/08/26 01:55:55;;;;;;;;;;;;;;;24.34;51.79;99448.84;2054244;28;20008;-72
2021/08/26 01:56:56;;;;;;;;;;;;;;;24.35;51.78;99456.06;2058270;28;19909;-72
2021/08/26 01:57:57;;;;;;;;;;;;;;;24.32;51.82;99449.03;2059172;28;19918;-72
2021/08/26 01:58:57;;;;;;;;;;;;;;;24.33;51.80;99450.78;2056423;28;19972;-72
2021/08/26 01:59:59;;;;;;;;;;;;;;;24.34;51.86;99448.84;2060722;28;20250;-72
2021/08/26 02:00:59;;;;;;;;;;;;;;;24.34;52.00;99449.69;2057751;28;19945;-71
2021/08/26 02:02:00;;;;;;;;;;;;;;;24.32;51.87;99451.81;2060906;28;20431;-72
2021/08/26 02:03:00;;;;;;;;;;;;;;;24.32;51.79;99451.81;2058457;28;19932;-72
2021/08/26 02:04:00;;;;;;;;;;;;;;;24.32;51.90;99446.28;2059685;28;20296;-72
2021/08/26 02:05:01;;;;;;;;;;;;;;;24.33;51.76;99453.53;2057293;28;20536;-72
2021/08/26 02:06:01;;;;;;;;;;;;;;;24.32;51.90;99451.81;2060033;28;20653;-72
2021/08/26 02:07:01;;;;;;;;;;;;;;;24.32;51.83;99449.03;2071644;28;19909;-72
2021/08/26 02:08:02;;;;;;;;;;;;;;;24.34;51.84;99448.84;2073471;28;19954;-72
2021/08/26 02:09:02;;;;;;;;;;;;;;;24.32;51.82;99457.31;2058483;28;20368;-72
2021/08/26 02:10:03;;;;;;;;;;;;;;;24.32;51.68;99443.53;2058004;28;21026;-72
2021/08/26 02:11:04;;;;;;;;;;;;;;;24.33;51.79;99459.03;2054036;28;20012;-72
2021/08/26 02:12:04;;;;;;;;;;;;;;;24.33;51.87;99453.53;2056875;28;19918;-72
2021/08/26 02:13:04;;;;;;;;;;;;;;;24.32;51.82;99451.81;2055949;28;19989;-72
2021/08/26 02:14:05;;;;;;;;;;;;;;;24.33;51.74;99453.53;2067984;28;19956;-71
2021/08/26 02:15:05;;;;;;;;;;;;;;;24.32;51.84;99448.19;2066609;28;19921;-72
2021/08/26 02:16:06;;;;;;;;;;;;;;;24.32;52.09;99457.31;2053438;28;19921;-71
2021/08/26 02:17:06;;;;;;;;;;;;;;;24.31;52.04;99457.53;2062310;28;19968;-72
2021/08/26 02:18:06;;;;;;;;;;;;;;;24.32;51.90;99456.47;2055462;28;19953;-72
2021/08/26 02:19:07;;;;;;;;;;;;;;;24.32;52.03;99462.81;2058971;28;20340;-72
2021/08/26 02:20:07;;;;;;;;;;;;;;;24.32;51.92;99462.81;2058082;28;19916;-72
2021/08/26 02:21:08;;;;;;;;;;;;;;;24.31;51.87;99466.63;2058734;28;20136;-72
2021/08/26 02:22:08;;;;;;;;;;;;;;;24.31;51.90;99463.03;2063369;28;20237;-72
2021/08/26 02:23:09;;;;;;;;;;;;;;;24.31;51.97;99466.63;2054888;28;19921;-71
2021/08/26 02:24:09;;;;;;;;;;;;;;;24.31;52.03;99466.63;2056068;28;19925;-72
2021/08/26 02:25:10;;;;;;;;;;;;;;;24.32;52.00;99462.81;2058543;28;20554;-72
2021/08/26 02:26:11;;;;;;;;;;;;;;;24.31;51.87;99461.13;2059049;28;20008;-71
2021/08/26 02:27:11;;;;;;;;;;;;;;;24.30;52.03;99464.94;2057753;28;19925;-72
2021/08/26 02:28:11;;;;;;;;;;;;;;;24.30;51.95;99462.19;2060416;28;19968;-72
2021/08/26 02:29:12;;;;;;;;;;;;;;;24.30;51.96;99462.19;2060904;28;19914;-72
2021/08/26 02:30:12;;;;;;;;;;;;;;;24.30;52.12;99461.31;2056907;28;20296;-72
2021/08/26 02:31:12;;;;;;;;;;;;;;;24.29;51.99;99457.72;2055820;28;19926;-72
2021/08/26 02:32:13;;;;;;;;;;;;;;;24.30;52.07;99461.31;2056291;28;19925;-73
2021/08/26 02:33:13;;;;;;;;;;;;;;;24.30;52.07;99458.56;2060312;28;19999;-71
2021/08/26 02:34:13;;;;;;;;;;;;;;;24.30;51.93;99459.44;2061779;28;19917;-72
2021/08/26 02:35:14;;;;;;;;;;;;;;;24.31;51.96;99461.13;2059841;28;20024;-71
2021/08/26 02:36:14;;;;;;;;;;;;;;;24.30;51.97;99461.31;2057071;28;19922;-71
2021/08/26 02:37:14;;;;;;;;;;;;;;;24.30;51.95;99459.44;2059468;28;20020;-71
2021/08/26 02:38:15;;;;;;;;;;;;;;;24.29;52.00;99460.47;2059069;28;19924;-72
2021/08/26 02:39:15;;;;;;;;;;;;;;;24.29;51.91;99463.22;2060359;28;20336;-71
2021/08/26 02:40:15;;;;;;;;;;;;;;;24.28;52.13;99461.53;2058707;28;19917;-72
2021/08/26 02:41:16;;;;;;;;;;;;;;;24.28;52.07;99467.03;2060228;28;19922;-72
2021/08/26 02:42:16;;;;;;;;;;;;;;;24.29;52.01;99465.97;2062048;28;20178;-72
2021/08/26 02:43:17;;;;;;;;;;;;;;;24.27;52.15;99458.97;2061240;28;19917;-72
2021/08/26 02:44:17;;;;;;;;;;;;;;;24.27;52.06;99459.81;2062767;28;19909;-72
2021/08/26 02:45:17;;;;;;;;;;;;;;;24.28;52.02;99461.53;2060139;28;20152;-71
2021/08/26 02:46:18;;;;;;;;;;;;;;;24.27;52.14;99458.97;2056000;28;20235;-73
2021/08/26 02:47:18;;;;;;;;;;;;;;;24.27;52.08;99462.56;2057423;28;19929;-72
2021/08/26 02:48:19;;;;;;;;;;;;;;;24.28;51.94;99460.69;2061960;28;21190;-72
2021/08/26 02:49:19;;;;;;;;;;;;;;;24.28;52.00;99453.28;2066648;28;19917;-72
2021/08/26 02:50:19;;;;;;;;;;;;;;;24.28;52.07;99466.19;2061198;28;19921;-72
2021/08/26 02:51:19;;;;;;;;;;;;;;;24.27;51.99;99459.81;2057801;28;19932;-71
2021/08/26 02:52:20;;;;;;;;;;;;;;;24.28;52.05;99457.94;2059023;28;19921;-72
2021/08/26 02:53:20;;;;;;;;;;;;;;;24.28;52.02;99453.28;2070377;28;20015;-72
2021/08/26 02:54:20;;;;;;;;;;;;;;;24.28;52.02;99460.69;2075928;28;19923;-72
2021/08/26 02:55:21;;;;;;;;;;;;;;;24.27;51.96;99453.47;2061385;28;20267;-72
2021/08/26 02:56:21;;;;;;;;;;;;;;;24.26;52.15;99452.63;2061480;28;19913;-72
2021/08/26 02:57:21;;;;;;;;;;;;;;;24.26;52.06;99452.63;2059142;28;19921;-71
2021/08/26 02:58:22;;;;;;;;;;;;;;;24.27;51.99;99454.31;2061467;28;19917;-72
2021/08/26 02:59:22;;;;;;;;;;;;;;;24.27;51.90;99454.31;2059247;28;19917;-72
2021/08/26 03:00:22;;;;;;;;;;;;;;;24.27;52.00;99448.78;2060763;28;20304;-71
2021/08/26 03:01:23;;;;;;;;;;;;;;;24.27;52.06;99456.22;2059610;28;20483;-71
2021/08/26 03:02:23;;;;;;;;;;;;;;;24.26;52.08;99452.63;2060288;28;19917;-72
2021/08/26 03:03:23;;;;;;;;;;;;;;;24.25;52.06;99450.03;2060496;28;19917;-72
2021/08/26 03:04:24;;;;;;;;;;;;;;;24.26;51.95;99446.25;2062721;28;19967;-72
2021/08/26 03:05:24;;;;;;;;;;;;;;;24.25;52.05;99453.66;2060023;28;19918;-72
2021/08/26 03:06:24;;;;;;;;;;;;;;;24.27;52.08;99448.78;2060165;28;19918;-72
2021/08/26 03:07:24;;;;;;;;;;;;;;;24.26;52.00;99446.25;2060918;28;19924;-71
2021/08/26 03:08:25;;;;;;;;;;;;;;;24.26;51.94;99447.09;2075065;28;19928;-72
2021/08/26 03:09:25;;;;;;;;;;;;;;;24.27;52.10;99450.72;2080163;28;19924;-71
2021/08/26 03:10:28;;;;;;;;;;;;;;;24.27;52.06;99448.78;2058078;28;19921;-72
2021/08/26 03:11:28;;;;;;;;;;;;;;;24.25;52.13;99448.13;2059529;28;19917;-71
2021/08/26 03:12:28;;;;;;;;;;;;;;;24.25;52.11;99442.63;2061824;28;20260;-72
2021/08/26 03:13:29;;;;;;;;;;;;;;;24.25;52.15;99441.78;2059103;28;20206;-72
2021/08/26 03:14:29;;;;;;;;;;;;;;;24.26;52.16;99435.25;2060804;28;19959;-72
2021/08/26 03:15:29;;;;;;;;;;;;;;;24.24;52.26;99438.19;2059024;28;19922;-72
2021/08/26 03:16:29;;;;;;;;;;;;;;;24.24;52.24;99437.34;2058039;28;19924;-72
2021/08/26 03:17:30;;;;;;;;;;;;;;;24.25;52.12;99437.13;2061469;28;19924;-72
2021/08/26 03:18:30;;;;;;;;;;;;;;;24.25;52.32;99436.28;2059391;28;19980;-72
2021/08/26 03:19:30;;;;;;;;;;;;;;;24.24;52.31;99438.19;2060783;28;20114;-72
2021/08/26 03:20:31;;;;;;;;;;;;;;;24.24;52.18;99442.84;2068046;28;19924;-72
2021/08/26 03:21:31;;;;;;;;;;;;;;;24.23;52.32;99436.50;2068014;28;19917;-72
2021/08/26 03:22:31;;;;;;;;;;;;;;;24.23;52.32;99439.25;2064686;28;20735;-72
2021/08/26 03:23:32;;;;;;;;;;;;;;;24.22;52.17;99432.03;2061691;28;20630;-72
2021/08/26 03:24:32;;;;;;;;;;;;;;;24.24;52.26;99438.19;2062958;28;20585;-72
2021/08/26 03:25:32;;;;;;;;;;;;;;;24.23;52.27;99436.50;2065356;28;20340;-72
2021/08/26 03:26:33;;;;;;;;;;;;;;;24.23;52.25;99431.00;2059395;28;19920;-72
2021/08/26 03:27:33;;;;;;;;;;;;;;;24.23;52.12;99436.50;2059788;28;19918;-73
2021/08/26 03:28:33;;;;;;;;;;;;;;;24.22;52.24;99437.53;2063169;28;19909;-71
2021/08/26 03:29:34;;;;;;;;;;;;;;;24.22;52.25;99437.53;2066287;28;19924;-62
2021/08/26 03:30:34;;;;;;;;;;;;;;;24.22;52.29;99443.03;2057442;28;20191;-62
2021/08/26 03:31:34;;;;;;;;;;;;;;;24.23;52.24;99444.75;2059385;28;19917;-63
2021/08/26 03:32:35;;;;;;;;;;;;;;;24.23;52.22;99439.25;2057089;28;20044;-62
2021/08/26 03:33:35;;;;;;;;;;;;;;;24.23;52.17;99444.75;2060639;28;19929;-62
2021/08/26 03:34:35;;;;;;;;;;;;;;;24.23;52.27;99441.13;2057330;28;19972;-62
2021/08/26 03:35:36;;;;;;;;;;;;;;;24.23;52.32;99447.50;2057233;28;19921;-62
2021/08/26 03:36:36;;;;;;;;;;;;;;;24.21;52.22;99444.09;2060690;28;19913;-62
2021/08/26 03:37:36;;;;;;;;;;;;;;;24.22;52.12;99443.03;2057020;28;19922;-62
2021/08/26 03:38:37;;;;;;;;;;;;;;;24.20;52.35;99442.38;2067036;28;20043;-61
2021/08/26 03:39:37;;;;;;;;;;;;;;;24.20;52.36;99442.38;2068643;28;19951;-63
2021/08/26 03:40:37;;;;;;;;;;;;;;;24.24;52.34;99448.34;2057382;28;19999;-63
2021/08/26 03:41:37;;;;;;;;;;;;;;;24.23;52.32;99447.50;2060479;28;19917;-64
2021/08/26 03:42:38;;;;;;;;;;;;;;;24.23;52.32;99453.03;2057643;28;20010;-65
2021/08/26 03:43:38;;;;;;;;;;;;;;;24.23;52.36;99442.00;2055607;28;19980;-64
2021/08/26 03:44:38;;;;;;;;;;;;;;;24.24;52.32;99446.44;2057314;28;20481;-64
2021/08/26 03:45:39;;;;;;;;;;;;;;;24.25;52.43;99447.28;2065573;28;19921;-64
2021/08/26 03:46:39;;;;;;;;;;;;;;;24.26;52.38;99440.75;2067234;28;19924;-64
2021/08/26 03:47:40;;;;;;;;;;;;;;;24.24;52.35;99438.19;2058767;28;19968;-64
2021/08/26 03:48:40;;;;;;;;;;;;;;;24.25;52.46;99448.13;2059671;28;19918;-64
2021/08/26 03:49:40;;;;;;;;;;;;;;;24.25;52.45;99439.88;2066140;28;19924;-64
2021/08/26 03:50:41;;;;;;;;;;;;;;;24.25;52.33;99439.03;2068576;28;19937;-64
2021/08/26 03:51:41;;;;;;;;;;;;;;;24.23;52.20;99436.50;2062098;28;19925;-64
2021/08/26 03:52:41;;;;;;;;;;;;;;;24.24;52.40;99440.94;2065489;28;19956;-64
2021/08/26 03:53:42;;;;;;;;;;;;;;;24.24;52.31;99442.84;2065054;28;20864;-64
2021/08/26 03:54:42;;;;;;;;;;;;;;;24.24;52.36;99438.19;2059695;28;20671;-64
2021/08/26 03:55:42;;;;;;;;;;;;;;;24.24;52.35;99440.09;2060983;28;20026;-65
2021/08/26 03:56:43;;;;;;;;;;;;;;;24.25;52.32;99444.53;2058961;28;19967;-65
2021/08/26 03:57:43;;;;;;;;;;;;;;;24.25;52.39;99444.53;2059257;28;20003;-64
2021/08/26 03:58:43;;;;;;;;;;;;;;;24.23;52.32;99453.03;2058327;28;19925;-64
2021/08/26 03:59:43;;;;;;;;;;;;;;;24.24;52.36;99448.34;2059102;28;20398;-64
2021/08/26 04:00:44;;;;;;;;;;;;;;;24.24;52.39;99453.88;2058683;28;20098;-64
2021/08/26 04:01:44;;;;;;;;;;;;;;;24.24;52.40;99449.19;2055280;28;19957;-65
2021/08/26 04:02:44;;;;;;;;;;;;;;;24.24;52.46;99454.72;2058228;28;20262;-64
2021/08/26 04:03:45;;;;;;;;;;;;;;;24.23;52.38;99450.28;2054043;28;19918;-64
2021/08/26 04:04:45;;;;;;;;;;;;;;;24.24;52.39;99448.34;2058951;28;19918;-64
2021/08/26 04:05:45;;;;;;;;;;;;;;;24.23;52.32;99450.28;2060398;28;19929;-65
2021/08/26 04:06:46;;;;;;;;;;;;;;;24.24;52.38;99456.63;2060289;28;20611;-65
2021/08/26 04:07:46;;;;;;;;;;;;;;;24.23;52.35;99447.50;2055781;28;20350;-64
2021/08/26 04:08:46;;;;;;;;;;;;;;;24.23;52.48;99450.28;2060749;28;19909;-64
2021/08/26 04:09:47;;;;;;;;;;;;;;;24.24;52.50;99446.44;2061813;28;20588;-64
2021/08/26 04:10:47;;;;;;;;;;;;;;;24.24;52.58;99443.69;2061267;28;19975;-64
2021/08/26 04:11:47;;;;;;;;;;;;;;;24.25;52.57;99447.28;2060867;28;20475;-64
2021/08/26 04:12:48;;;;;;;;;;;;;;;24.27;52.55;99454.31;2059774;28;21295;-64
2021/08/26 04:13:48;;;;;;;;;;;;;;;24.28;52.59;99455.19;2053515;28;19960;-64
2021/08/26 04:14:48;;;;;;;;;;;;;;;24.28;52.62;99453.28;2055159;28;19925;-64
2021/08/26 04:15:49;;;;;;;;;;;;;;;24.28;52.70;99455.19;2060282;28;20024;-64
2021/08/26 04:16:49;;;;;;;;;;;;;;;24.28;52.79;99453.28;2054807;28;19917;-64
2021/08/26 04:17:49;;;;;;;;;;;;;;;24.29;52.79;99459.63;2060836;28;19925;-64
2021/08/26 04:18:49;;;;;;;;;;;;;;;24.30;52.90;99453.94;2054747;28;19959;-64
2021/08/26 04:19:50;;;;;;;;;;;;;;;24.30;52.89;99459.44;2057896;28;19925;-64
2021/08/26 04:20:50;;;;;;;;;;;;;;;24.30;52.96;99459.44;2057891;28;19926;-64
2021/08/26 04:21:51;;;;;;;;;;;;;;;24.30;52.98;99455.81;2059659;28;20020;-64
2021/08/26 04:22:51;;;;;;;;;;;;;;;24.28;53.01;99456.03;2059044;28;19918;-64
2021/08/26 04:23:52;;;;;;;;;;;;;;;24.29;53.07;99462.38;2061629;28;19983;-64
2021/08/26 04:24:52;;;;;;;;;;;;;;;24.29;53.12;99465.97;2068906;28;20071;-64
2021/08/26 04:25:52;;;;;;;;;;;;;;;24.31;53.07;99460.28;2070387;28;19960;-64
2021/08/26 04:26:53;;;;;;;;;;;;;;;24.30;53.12;99464.06;2057681;28;19928;-64
2021/08/26 04:27:53;;;;;;;;;;;;;;;24.29;53.05;99463.22;2061918;28;20508;-64
2021/08/26 04:28:53;;;;;;;;;;;;;;;24.30;53.04;99458.56;2058285;28;19996;-64
2021/08/26 04:29:53;;;;;;;;;;;;;;;24.30;53.18;99464.06;2055149;28;19910;-64
2021/08/26 04:30:54;;;;;;;;;;;;;;;24.30;53.06;99464.06;2060238;28;20008;-63
2021/08/26 04:31:54;;;;;;;;;;;;;;;24.29;53.13;99457.72;2055755;28;20098;-64
2021/08/26 04:32:54;;;;;;;;;;;;;;;24.30;53.05;99456.69;2060171;28;19917;-64
2021/08/26 04:33:55;;;;;;;;;;;;;;;24.31;52.96;99463.88;2057591;28;19961;-64
2021/08/26 04:34:55;;;;;;;;;;;;;;;24.31;53.11;99466.63;2059742;28;20088;-64
2021/08/26 04:35:55;;;;;;;;;;;;;;;24.31;53.19;99468.53;2058147;28;19992;-64
2021/08/26 04:36:56;;;;;;;;;;;;;;;24.30;53.14;99470.44;2055842;28;20698;-65
2021/08/26 04:37:56;;;;;;;;;;;;;;;24.30;53.11;99464.94;2057416;28;20313;-64
2021/08/26 04:38:56;;;;;;;;;;;;;;;24.30;53.10;99470.44;2055594;28;19918;-64
2021/08/26 04:39:56;;;;;;;;;;;;;;;24.30;53.26;99469.56;2061719;28;20670;-64
2021/08/26 04:40:57;;;;;;;;;;;;;;;24.30;53.21;99466.81;2058943;28;19925;-64
2021/08/26 04:41:57;;;;;;;;;;;;;;;24.30;53.08;99470.44;2060723;28;19963;-64
2021/08/26 04:42:57;;;;;;;;;;;;;;;24.29;53.16;99473.41;2058524;28;19913;-64
2021/08/26 04:43:58;;;;;;;;;;;;;;;24.30;53.18;99470.44;2060248;28;19917;-64
2021/08/26 04:44:58;;;;;;;;;;;;;;;24.30;53.26;99475.09;2061395;28;19917;-64
2021/08/26 04:45:58;;;;;;;;;;;;;;;24.30;53.26;99480.59;2056222;28;19933;-64
2021/08/26 04:46:58;;;;;;;;;;;;;;;24.30;53.17;99473.22;2060147;28;20016;-64
2021/08/26 04:47:59;;;;;;;;;;;;;;;24.31;53.17;99477.66;2053638;28;19917;-64
2021/08/26 04:48:59;;;;;;;;;;;;;;;24.32;53.20;99476.59;2056067;28;19917;-64
2021/08/26 04:49:59;;;;;;;;;;;;;;;24.32;53.11;99478.50;2060414;28;20467;-63
2021/08/26 04:51:00;;;;;;;;;;;;;;;24.32;53.25;99476.59;2058874;28;19925;-63
2021/08/26 04:52:00;;;;;;;;;;;;;;;24.31;53.25;99477.66;2056067;28;19921;-63
2021/08/26 04:53:00;;;;;;;;;;;;;;;24.32;53.18;99481.25;2063277;28;19928;-63
2021/08/26 04:54:00;;;;;;;;;;;;;;;24.31;53.20;99477.66;2059042;28;20643;-63
2021/08/26 04:55:01;;;;;;;;;;;;;;;24.32;53.28;99482.09;2056717;28;19921;-63
2021/08/26 04:56:01;;;;;;;;;;;;;;;24.31;53.25;99480.41;2058991;28;19982;-63
2021/08/26 04:57:01;;;;;;;;;;;;;;;24.31;53.40;99483.16;2059247;28;19935;-63
2021/08/26 04:58:02;;;;;;;;;;;;;;;24.31;53.33;99483.16;2058875;28;19925;-63
2021/08/26 04:59:02;;;;;;;;;;;;;;;24.31;53.34;99487.81;2057135;28;19927;-63
2021/08/26 05:00:04;;;;;;;;;;;;;;;24.32;53.31;99487.59;2057882;28;19921;-63
2021/08/26 05:01:04;;;;;;;;;;;;;;;24.31;53.32;99488.66;2057244;28;20009;-63
2021/08/26 05:02:04;;;;;;;;;;;;;;;24.31;53.35;99488.66;2057562;28;20680;-63
2021/08/26 05:03:05;;;;;;;;;;;;;;;24.31;53.41;99485.91;2057190;28;19930;-63
2021/08/26 05:04:06;;;;;;;;;;;;;;;24.32;53.19;99479.34;2058433;28;19921;-63
2021/08/26 05:05:06;;;;;;;;;;;;;;;24.34;53.19;99476.41;2061494;28;19917;-63
2021/08/26 05:06:07;;;;;;;;;;;;;;;24.33;53.28;99486.56;2057514;28;19921;-63
2021/08/26 05:07:07;;;;;;;;;;;;;;;24.34;53.37;99488.25;2060312;28;19944;-63
2021/08/26 05:08:08;;;;;;;;;;;;;;;24.33;53.41;99485.72;2059649;28;19913;-63
2021/08/26 05:09:08;;;;;;;;;;;;;;;24.34;53.41;99492.94;2060737;28;19925;-63
2021/08/26 05:10:08;;;;;;;;;;;;;;;24.32;53.39;99490.34;2057747;28;20018;-63
2021/08/26 05:11:16;;;;;;;;;;;;;;;24.33;53.33;99496.75;2055302;28;19999;-63
2021/08/26 05:12:16;;;;;;;;;;;;;;;24.32;53.33;99490.34;1987874;28;1970269;-63
2021/08/26 05:13:17;;;;;;;;;;;;;;;24.33;53.40;99500.34;2059896;28;19928;-63
2021/08/26 05:14:17;;;;;;;;;;;;;;;24.33;53.32;99497.59;2058758;28;19975;-63
2021/08/26 05:15:17;;;;;;;;;;;;;;;24.33;53.43;99503.09;2059916;28;19913;-63
2021/08/26 05:16:17;;;;;;;;;;;;;;;24.31;53.38;99502.44;2057902;28;19925;-63
2021/08/26 05:17:18;;;;;;;;;;;;;;;24.32;53.49;99500.53;2058579;28;19928;-63
2021/08/26 05:18:18;;;;;;;;;;;;;;;24.31;53.50;99498.84;2059297;28;19913;-63
2021/08/26 05:19:18;;;;;;;;;;;;;;;24.32;53.44;99501.38;2070941;28;20039;-63
2021/08/26 05:20:19;;;;;;;;;;;;;;;24.30;53.42;99498.00;2076902;28;19908;-63
2021/08/26 05:21:19;;;;;;;;;;;;;;;24.32;53.35;99506.88;2058801;28;20280;-63
2021/08/26 05:22:19;;;;;;;;;;;;;;;24.32;53.36;99504.13;2055664;28;20270;-63
2021/08/26 05:23:20;;;;;;;;;;;;;;;24.33;53.25;99505.84;2060038;28;19921;-63
2021/08/26 05:24:20;;;;;;;;;;;;;;;24.32;53.39;99501.38;2060542;28;19917;-63